»·PEaware :: N123SX KSFO-KSNA

N123SX :: KSFO-KSNA

FLIGHT INFORMATION

Flight Status: Arrived
Operator: Privately registered:
United States
More flights under this callsign
Pilot: Shawn G. (7208)
Aircraft: SOCATA TBM-900
(TBM9)
More flights by this aircraft type
Origin: KSFO San Francisco Intl
United States
Destination: KSNA John Wayne-Orange Co
United States
More flights between these airports :: More routes between these airports
Route: WESLA4 YYUNG TILLT TILLT2
File this flight plan on PilotEdge
Remarks:
Altitude:
(Current/Filed)
27,000ft
Speed:
(Current/Filed)
320kts
Departed: 28-Apr-19 03:21 AM
Arrived: 28-Apr-19 04:46 AM
Distance/Time
Traveled:
323nm/1:25
Distance/Time
To Go:
Arrived

Flight Plot

Page will automatically refresh every two minutes.

Flight plan parsing failed; only flown route is shown


Map Options




Map Legend


Flown Route
Filed Route
Departure Airport
Arrival Airport
Navaid (VOR, NDB)
Fix

Horizontal Profiles

Position Reports

Time Latitude Longitude Heading Altitude Ground
Speed
28-Apr-19 03:11 37.628773 -122.382582 139 16ft 0kts
28-Apr-19 03:12 37.628773 -122.382582 139 16ft 0kts
28-Apr-19 03:13 37.628773 -122.382582 139 16ft 0kts
28-Apr-19 03:14 37.628773 -122.382582 139 16ft 0kts
28-Apr-19 03:15 37.627123 -122.383281 168 16ft 14kts
28-Apr-19 03:16 37.624255 -122.379006 118 16ft 24kts
28-Apr-19 03:17 37.620624 -122.370578 118 16ft 27kts
28-Apr-19 03:18 37.617251 -122.362321 111 16ft 26kts
28-Apr-19 03:19 37.613718 -122.357352 257 16ft 11kts
28-Apr-19 03:20 37.623974 -122.382202 295 382ft 143kts
28-Apr-19 03:21 37.644346 -122.431710 296 2049ft 161kts
28-Apr-19 03:22 37.665038 -122.482664 285 3838ft 165kts
28-Apr-19 03:23 37.630127 -122.504027 175 5584ft 174kts
28-Apr-19 03:24 37.581430 -122.494110 173 7264ft 179kts
28-Apr-19 03:25 37.531546 -122.483471 174 8891ft 184kts
28-Apr-19 03:26 37.480460 -122.476221 192 10642ft 185kts
28-Apr-19 03:27 37.429139 -122.485879 192 12315ft 189kts
28-Apr-19 03:28 37.376265 -122.495729 192 13984ft 193kts
28-Apr-19 03:29 37.322579 -122.505704 191 15576ft 198kts
28-Apr-19 03:30 37.267257 -122.515969 191 17148ft 203kts
28-Apr-19 03:31 37.210863 -122.526414 191 18652ft 208kts
28-Apr-19 03:32 37.153149 -122.537094 190 20143ft 212kts
28-Apr-19 03:33 37.094089 -122.547983 191 21482ft 216kts
28-Apr-19 03:34 37.034913 -122.558872 192 22745ft 214kts
28-Apr-19 03:35 36.977557 -122.543037 156 23804ft 229kts
28-Apr-19 03:36 36.922085 -122.502220 157 25010ft 234kts
28-Apr-19 03:37 36.866152 -122.461119 157 26394ft 238kts
28-Apr-19 03:38 36.806444 -122.417388 156 27017ft 269kts
28-Apr-19 03:39 36.737970 -122.367214 156 27001ft 296kts
28-Apr-19 03:40 36.665415 -122.314178 156 26992ft 306kts
28-Apr-19 03:41 36.591398 -122.260209 155 26991ft 308kts
28-Apr-19 03:42 36.517239 -122.206257 155 26990ft 309kts
28-Apr-19 03:43 36.442909 -122.152311 155 26989ft 309kts
28-Apr-19 03:44 36.368524 -122.098445 155 26989ft 309kts
28-Apr-19 03:45 36.294042 -122.044628 155 26988ft 309kts
28-Apr-19 03:46 36.219472 -121.990872 155 26988ft 309kts
28-Apr-19 03:47 36.144863 -121.937192 156 26988ft 309kts
28-Apr-19 03:48 36.070152 -121.883581 155 26989ft 310kts
28-Apr-19 03:49 35.996923 -121.827451 142 26982ft 318kts
28-Apr-19 03:50 35.941441 -121.739935 133 26988ft 323kts
28-Apr-19 03:51 35.886797 -121.652932 133 26995ft 323kts
28-Apr-19 03:52 35.831442 -121.565060 133 26991ft 324kts
28-Apr-19 03:53 35.775938 -121.477185 133 26988ft 324kts
28-Apr-19 03:54 35.720398 -121.389460 133 26987ft 324kts
28-Apr-19 03:55 35.664805 -121.301890 134 26981ft 324kts
28-Apr-19 03:56 35.608978 -121.214161 134 26981ft 323kts
28-Apr-19 03:57 35.553509 -121.127215 134 26980ft 324kts
28-Apr-19 03:58 35.493983 -121.044809 145 26988ft 319kts
28-Apr-19 03:59 35.426876 -120.971951 145 26991ft 322kts
28-Apr-19 04:00 35.359047 -120.898593 145 26999ft 324kts
28-Apr-19 04:01 35.291070 -120.825222 145 26994ft 326kts
28-Apr-19 04:02 35.222614 -120.751553 145 26991ft 327kts
28-Apr-19 04:03 35.154217 -120.678094 145 26992ft 327kts
28-Apr-19 04:04 35.085667 -120.604644 145 26996ft 327kts
28-Apr-19 04:05 35.014277 -120.536427 153 27007ft 321kts
28-Apr-19 04:06 34.940178 -120.476291 154 27010ft 317kts
28-Apr-19 04:07 34.868376 -120.418230 155 27017ft 311kts
28-Apr-19 04:08 34.796347 -120.360114 155 27012ft 308kts
28-Apr-19 04:09 34.725835 -120.303323 155 26999ft 306kts
28-Apr-19 04:10 34.654864 -120.246355 155 26999ft 304kts
28-Apr-19 04:11 34.584114 -120.189744 155 26999ft 304kts
28-Apr-19 04:12 34.513344 -120.133232 155 26998ft 303kts
28-Apr-19 04:13 34.442654 -120.076903 155 26998ft 303kts
28-Apr-19 04:14 34.371811 -120.020566 155 26998ft 303kts
28-Apr-19 04:15 34.301064 -119.964422 155 26998ft 303kts
28-Apr-19 04:16 34.230345 -119.908411 155 26997ft 303kts
28-Apr-19 04:17 34.159618 -119.852513 155 26997ft 303kts
28-Apr-19 04:18 34.088664 -119.796561 155 26997ft 304kts
28-Apr-19 04:19 34.036905 -119.709597 129 26998ft 327kts
28-Apr-19 04:20 33.989953 -119.615631 130 26995ft 327kts
28-Apr-19 04:21 33.942702 -119.521636 130 26998ft 327kts
28-Apr-19 04:22 33.895957 -119.428737 129 27005ft 327kts
28-Apr-19 04:23 33.849547 -119.334562 128 25869ft 353kts
28-Apr-19 04:24 33.797329 -119.228637 127 23851ft 360kts
28-Apr-19 04:25 33.745932 -119.124764 127 21756ft 360kts
28-Apr-19 04:26 33.694764 -119.021641 126 19648ft 353kts
28-Apr-19 04:27 33.644887 -118.921453 125 17330ft 348kts
28-Apr-19 04:28 33.595541 -118.822575 123 14312ft 339kts
28-Apr-19 04:29 33.562675 -118.719998 100 11684ft 323kts
28-Apr-19 04:30 33.546173 -118.616719 99 9668ft 307kts
28-Apr-19 04:31 33.530539 -118.520229 99 8446ft 281kts
28-Apr-19 04:32 33.520674 -118.428270 89 7184ft 284kts
28-Apr-19 04:33 33.518363 -118.336097 88 6294ft 276kts
28-Apr-19 04:35 33.544034 -118.251467 67 5280ft 268kts
28-Apr-19 04:36 33.571257 -118.170775 53 4989ft 249kts
28-Apr-19 04:37 33.609568 -118.102543 54 5007ft 243kts
28-Apr-19 04:38 33.647142 -118.035047 54 5007ft 242kts
28-Apr-19 04:39 33.684526 -117.967763 54 5002ft 238kts
28-Apr-19 04:40 33.735819 -117.921240 26 4401ft 229kts
28-Apr-19 04:41 33.784810 -117.886537 52 3522ft 199kts
28-Apr-19 04:42 33.776863 -117.828849 146 1609ft 184kts
28-Apr-19 04:43 33.731993 -117.833127 207 1269ft 157kts
28-Apr-19 04:44 33.700873 -117.852874 207 547ft 104kts
28-Apr-19 04:45 33.677490 -117.867703 207 60ft 77kts
28-Apr-19 04:46 33.672035 -117.872417 256 59ft 0kts
28-Apr-19 04:47 33.674563 -117.871040 28 59ft 17kts
28-Apr-19 04:48 33.676723 -117.870545 30 59ft 0kts
28-Apr-19 04:49 33.676723 -117.870545 30 59ft 0kts

Navigation Log

Ident Type
Flight plan parsing failed, navigation log unavailable